Time;durP1;ratioP1;P1;durP2;ratioP2;P2;SDS_P1;SDS_P2;PMS_P1;PMS_P2;Temp;Humidity;BMP_temperature;BMP_pressure;BME280_temperature;BME280_humidity;BME280_pressure;Samples;Min_cycle;Max_cycle;Signal;HPM_P1;HPM_P2
2022/01/27 00:01:48;;;;;;;34.20;14.70;;;;;;;6.21;100.00;102452.72;5059682;28;20048;-31
2022/01/27 00:04:19;;;;;;;32.22;12.82;;;;;;;6.25;100.00;102436.47;5070679;28;20041;-32
2022/01/27 00:06:47;;;;;;;25.93;12.97;;;;;;;6.22;100.00;102437.78;5069357;28;20476;-33
2022/01/27 00:09:24;;;;;;;27.08;13.32;;;;;;;6.19;100.00;102409.69;5070328;28;20289;-32
2022/01/27 00:11:52;;;;;;;27.90;12.73;;;;;;;6.22;100.00;102415.59;5069846;28;20045;-30
2022/01/27 00:14:22;;;;;;;34.40;14.05;;;;;;;6.26;100.00;102410.44;5067020;28;20127;-33
2022/01/27 00:16:57;;;;;;;32.25;13.98;;;;;;;6.22;100.00;102390.66;5070416;28;20390;-36
2022/01/27 00:19:25;;;;;;;33.33;13.40;;;;;;;6.22;100.00;102406.44;5069481;28;20047;-38
2022/01/27 00:21:53;;;;;;;32.85;13.85;;;;;;;6.21;100.00;102416.69;5070334;28;20066;-33
2022/01/27 00:24:21;;;;;;;32.00;14.07;;;;;;;6.17;100.00;102390.53;5070134;28;20051;-37
2022/01/27 00:26:48;;;;;;;37.92;13.50;;;;;;;6.14;100.00;102377.13;5069273;28;20523;-33
2022/01/27 00:29:16;;;;;;;38.00;14.13;;;;;;;6.19;100.00;102398.63;5068817;28;20049;-31
2022/01/27 00:31:45;;;;;;;30.73;12.57;;;;;;;6.22;100.00;102406.44;5070203;28;20401;-34
2022/01/27 00:34:13;;;;;;;29.75;13.00;;;;;;;6.19;100.00;102404.16;5072062;28;20057;-34
2022/01/27 00:36:41;;;;;;;27.20;12.60;;;;;;;6.19;100.00;102424.38;5073755;28;20053;-32
2022/01/27 00:39:09;;;;;;;32.33;13.80;;;;;;;6.20;100.00;102414.13;5073522;28;20060;-30
2022/01/27 00:41:37;;;;;;;28.95;12.95;;;;;;;6.19;100.00;102402.22;5072873;28;20072;-31
2022/01/27 00:44:05;;;;;;;30.77;12.90;;;;;;;6.22;100.00;102414.75;5073490;28;20048;-30
2022/01/27 00:46:36;;;;;;;29.58;12.25;;;;;;;6.22;100.00;102409.22;5073289;28;20139;-30
2022/01/27 00:49:05;;;;;;;32.65;13.43;;;;;;;6.22;100.00;102414.75;5073231;28;20055;-30
2022/01/27 00:51:36;;;;;;;26.50;12.38;;;;;;;6.24;100.00;102401.50;5073539;28;20045;-30
2022/01/27 00:54:08;;;;;;;27.17;11.98;;;;;;;6.23;100.00;102400.66;5072739;28;20072;-33
2022/01/27 00:56:44;;;;;;;34.10;13.95;;;;;;;6.23;100.00;102402.59;5073757;28;20407;-32
2022/01/27 00:59:28;;;;;;;29.50;13.18;;;;;;;6.25;100.00;102402.34;5073152;28;20057;-32
2022/01/27 01:02:09;;;;;;;29.88;12.73;;;;;;;6.27;100.00;102394.66;5072486;28;20052;-31
2022/01/27 01:04:42;;;;;;;33.15;12.95;;;;;;;6.25;100.00;102400.44;5063507;28;20052;-30
2022/01/27 01:07:11;;;;;;;34.22;12.98;;;;;;;6.26;100.00;102404.91;5072793;28;20136;-33
2022/01/27 01:13:21;;;;;;;31.50;13.30;;;;;;;6.29;100.00;102410.00;5073276;28;20032;-30
2022/01/27 01:15:32;;;;;;;30.83;13.95;;;;;;;6.33;100.00;102404.81;5066426;28;20135;-31
2022/01/27 01:18:16;;;;;;;33.58;14.10;;;;;;;6.34;100.00;102396.28;5073513;28;20053;-32
2022/01/27 01:21:01;;;;;;;31.15;13.23;;;;;;;6.34;100.00;102379.66;5073031;28;20405;-34
2022/01/27 01:31:51;;;;;;;29.77;13.30;;;;;;;6.33;100.00;102344.69;5071836;28;20050;-32
2022/01/27 01:34:24;;;;;;;30.45;13.13;;;;;;;6.33;100.00;102339.13;5072563;28;20143;-33
2022/01/27 01:36:57;;;;;;;30.20;13.48;;;;;;;6.36;100.00;102333.13;5070802;28;20056;-31
2022/01/27 01:39:26;;;;;;;37.30;13.35;;;;;;;6.34;100.00;102335.28;5072473;28;20428;-31
2022/01/27 01:41:55;;;;;;;31.85;13.40;;;;;;;6.33;100.00;102339.13;5072483;28;20429;-31
2022/01/27 01:44:23;;;;;;;35.65;12.45;;;;;;;6.34;100.00;102340.00;5071480;28;20094;-31
2022/01/27 01:46:52;;;;;;;31.27;12.90;;;;;;;6.32;100.00;102322.75;5072061;28;20041;-33
2022/01/27 01:49:22;;;;;;;31.83;12.45;;;;;;;6.36;100.00;102327.59;5072449;28;20135;-32
2022/01/27 01:51:50;;;;;;;32.38;13.05;;;;;;;6.35;100.00;102327.81;5071739;28;20044;-30
2022/01/27 01:54:19;;;;;;;32.47;12.40;;;;;;;6.34;100.00;102335.28;5072480;28;20044;-32
2022/01/27 01:56:47;;;;;;;31.05;11.82;;;;;;;6.38;100.00;102346.75;5072115;28;20051;-30
2022/01/27 01:59:15;;;;;;;37.25;12.10;;;;;;;6.39;100.00;102321.56;5069800;28;20090;-35
2022/01/27 02:01:43;;;;;;;28.25;11.13;;;;;;;6.41;100.00;102336.00;5072064;28;20048;-37
2022/01/27 02:04:11;;;;;;;32.75;11.55;;;;;;;6.46;100.00;102329.78;5071232;28;20048;-31
2022/01/27 02:06:46;;;;;;;30.98;11.48;;;;;;;6.51;100.00;102324.38;5071999;28;20497;-34
2022/01/27 02:09:23;;;;;;;31.60;11.10;;;;;;;6.55;100.00;102300.63;5071827;28;20053;-31
2022/01/27 02:20:12;;;;;;;30.10;9.90;;;;;;;6.68;100.00;102308.75;5070806;28;20067;-31
2022/01/27 02:22:40;;;;;;;28.90;10.70;;;;;;;6.71;100.00;102308.28;5071626;28;20044;-32
2022/01/27 02:25:08;;;;;;;27.80;10.70;;;;;;;6.73;100.00;102305.25;5070806;28;20055;-31
2022/01/27 02:27:37;;;;;;;31.55;11.52;;;;;;;6.74;100.00;102293.94;5071555;28;20037;-30
2022/01/27 02:30:06;;;;;;;30.70;10.75;;;;;;;6.79;100.00;102299.63;5071000;28;20052;-30
2022/01/27 02:32:34;;;;;;;28.60;10.32;;;;;;;6.83;100.00;102297.19;5070642;28;20094;-31
2022/01/27 02:35:03;;;;;;;32.63;11.20;;;;;;;6.83;100.00;102294.41;5071322;28;20045;-30
2022/01/27 02:37:32;;;;;;;32.78;11.68;;;;;;;6.87;100.00;102281.75;5071539;28;20053;-31
2022/01/27 02:39:59;;;;;;;30.60;10.18;;;;;;;6.88;100.00;102286.22;5070415;28;21343;-30
2022/01/27 02:42:31;;;;;;;30.63;10.27;;;;;;;6.90;100.00;102275.72;5071200;28;20052;-32
2022/01/27 02:45:07;;;;;;;29.98;10.45;;;;;;;6.90;100.00;102261.84;5071346;28;20066;-30
2022/01/27 02:47:36;;;;;;;28.75;10.77;;;;;;;6.90;100.00;102261.84;5067831;28;20044;-29
2022/01/27 02:50:05;;;;;;;25.83;10.63;;;;;;;6.93;100.00;102257.75;5071428;28;20048;-35
2022/01/27 02:52:34;;;;;;;30.50;10.85;;;;;;;6.95;100.00;102259.22;5070564;28;20134;-33
2022/01/27 02:55:03;;;;;;;32.33;10.98;;;;;;;6.94;100.00;102260.28;5070129;28;20461;-31
2022/01/27 02:57:31;;;;;;;31.30;10.32;;;;;;;6.98;100.00;102249.56;5069639;28;20416;-32
2022/01/27 02:59:58;;;;;;;32.40;10.90;;;;;;;6.99;100.00;102254.03;5071026;28;20598;-30
2022/01/27 03:02:26;;;;;;;29.52;10.25;;;;;;;7.01;100.00;102238.78;5070206;28;20102;-32
2022/01/27 03:04:54;;;;;;;29.20;9.70;;;;;;;7.01;100.00;102238.78;5070122;28;20481;-31
2022/01/27 03:07:22;;;;;;;27.65;9.85;;;;;;;7.00;100.00;102227.94;5070190;28;20072;-30
2022/01/27 03:09:54;;;;;;;32.00;10.52;;;;;;;7.00;100.00;102234.31;5070930;28;20060;-31
2022/01/27 03:12:24;;;;;;;34.33;10.07;;;;;;;6.99;100.00;102221.56;5070758;28;20563;-31
2022/01/27 03:14:52;;;;;;;28.42;9.88;;;;;;;6.99;100.00;102241.00;5070121;28;20103;-33
2022/01/27 03:17:20;;;;;;;30.00;10.13;;;;;;;7.00;100.00;102242.66;5071019;28;20048;-30
2022/01/27 03:19:47;;;;;;;34.10;11.38;;;;;;;7.01;100.00;102232.41;5070847;28;20036;-31
2022/01/27 03:22:15;;;;;;;32.45;10.32;;;;;;;7.01;100.00;102224.91;5070085;28;20043;-31
2022/01/27 03:24:43;;;;;;;30.23;9.93;;;;;;;7.01;100.00;102222.13;5070713;28;20041;-30
2022/01/27 03:27:18;;;;;;;30.58;10.38;;;;;;;7.03;100.00;102211.66;5070898;28;20052;-31
2022/01/27 03:29:46;;;;;;;33.72;10.07;;;;;;;7.02;100.00;102198.84;5070157;28;20044;-32
2022/01/27 03:32:14;;;;;;;28.23;9.65;;;;;;;7.04;100.00;102210.56;5070692;28;20051;-30
2022/01/27 03:34:42;;;;;;;24.73;8.95;;;;;;;7.03;100.00;102206.09;5070780;28;20052;-31
2022/01/27 03:37:10;;;;;;;31.48;10.35;;;;;;;7.05;100.00;102209.47;5069881;28;20048;-32
2022/01/27 03:39:39;;;;;;;33.20;10.75;;;;;;;7.05;100.00;102209.47;5070843;28;20142;-31
2022/01/27 03:42:08;;;;;;;27.95;10.00;;;;;;;7.05;100.00;102184.50;5070715;28;20430;-31
2022/01/27 03:44:38;;;;;;;25.38;9.30;;;;;;;7.08;100.00;102185.94;5069751;28;20041;-38
2022/01/27 03:47:06;;;;;;;30.75;10.43;;;;;;;7.09;100.00;102170.97;5070619;28;20488;-39
2022/01/27 03:49:34;;;;;;;25.83;10.02;;;;;;;7.10;100.00;102178.22;5066196;28;20040;-32
2022/01/27 03:52:02;;;;;;;35.35;10.63;;;;;;;7.10;100.00;102175.44;5070775;28;20068;-34
2022/01/27 03:54:31;;;;;;;29.38;10.73;;;;;;;7.09;100.00;102169.06;5070286;28;20048;-32
2022/01/27 03:56:59;;;;;;;37.10;10.93;;;;;;;7.05;100.00;102165.06;5069854;28;20110;-30
2022/01/27 03:59:27;;;;;;;27.33;10.45;;;;;;;7.07;100.00;102168.44;5070128;28;20040;-30
2022/01/27 04:01:57;;;;;;;30.85;10.07;;;;;;;7.08;100.00;102164.59;5067051;28;20044;-31
2022/01/27 04:04:26;;;;;;;29.95;9.63;;;;;;;7.10;100.00;102162.41;5069424;28;20142;-30
2022/01/27 04:06:54;;;;;;;31.52;9.70;;;;;;;7.11;100.00;102152.16;5070899;28;20047;-30
2022/01/27 04:09:24;;;;;;;32.35;9.95;;;;;;;7.08;100.00;102147.94;5074391;28;20067;-32
2022/01/27 04:11:52;;;;;;;27.85;10.05;;;;;;;7.10;100.00;102159.63;5073714;28;20041;-32
2022/01/27 04:14:20;;;;;;;28.05;9.85;;;;;;;7.12;100.00;102156.63;5074098;28;20049;-30
2022/01/27 04:16:47;;;;;;;28.73;10.63;;;;;;;7.12;100.00;102163.00;5073956;28;20052;-31
2022/01/27 04:19:16;;;;;;;34.92;10.43;;;;;;;7.13;100.00;102156.38;5064257;28;20504;-32
2022/01/27 04:21:49;;;;;;;36.92;10.45;;;;;;;7.13;100.00;102155.53;5074136;28;20052;-33
2022/01/27 04:24:17;;;;;;;32.80;9.75;;;;;;;7.13;100.00;102156.38;5073757;28;20513;-31
2022/01/27 04:26:50;;;;;;;30.30;9.50;;;;;;;7.16;100.00;102149.50;5072833;28;20500;-31
2022/01/27 04:29:21;;;;;;;34.00;11.15;;;;;;;7.14;100.00;102146.97;5073680;28;20052;-32
2022/01/27 04:31:50;;;;;;;31.45;10.80;;;;;;;7.16;100.00;102150.34;5073275;28;20033;-32
2022/01/27 04:34:20;;;;;;;28.27;9.80;;;;;;;7.15;100.00;102148.66;5073740;28;20044;-29
2022/01/27 04:36:48;;;;;;;35.30;10.07;;;;;;;7.15;100.00;102156.13;5073756;28;20040;-31
2022/01/27 04:39:21;;;;;;;29.00;10.35;;;;;;;7.14;100.00;102157.22;5073223;28;20199;-31
2022/01/27 04:41:54;;;;;;;34.75;10.70;;;;;;;7.14;100.00;102149.75;5062991;28;20074;-33
2022/01/27 04:44:28;;;;;;;33.70;9.85;;;;;;;7.17;100.00;102154.81;5073807;28;20041;-31
2022/01/27 04:47:01;;;;;;;31.55;10.95;;;;;;;7.15;100.00;102151.44;5060497;28;20394;-30
2022/01/27 04:49:30;;;;;;;30.58;9.43;;;;;;;7.16;100.00;102153.13;5073265;28;20127;-32
2022/01/27 04:51:58;;;;;;;26.77;9.88;;;;;;;7.13;100.00;102156.38;5073168;28;20044;-33
2022/01/27 04:54:31;;;;;;;30.45;10.15;;;;;;;7.12;100.00;102163.00;5072027;28;20063;-31
2022/01/27 04:57:01;;;;;;;32.10;9.60;;;;;;;7.15;100.00;102159.75;5073305;28;20048;-30
2022/01/27 04:59:34;;;;;;;32.13;9.50;;;;;;;7.15;100.00;102145.88;5073009;28;20131;-31
2022/01/27 05:02:06;;;;;;;30.77;9.82;;;;;;;7.16;100.00;102163.38;5067784;28;20424;-30
2022/01/27 05:04:41;;;;;;;27.55;9.13;;;;;;;7.15;100.00;102148.66;5072841;28;20139;-30
2022/01/27 05:07:09;;;;;;;31.80;10.10;;;;;;;7.19;100.00;102149.00;5068554;28;20519;-32
2022/01/27 05:09:45;;;;;;;31.00;9.27;;;;;;;7.20;100.00;102154.28;5062835;28;20420;-33
2022/01/27 05:12:22;;;;;;;31.20;9.45;;;;;;;7.19;100.00;102130.38;5072631;28;20056;-33
2022/01/27 05:14:51;;;;;;;32.30;10.07;;;;;;;7.19;100.00;102126.81;5061906;28;20078;-30
2022/01/27 05:17:19;;;;;;;29.42;9.60;;;;;;;7.21;100.00;102122.66;5072472;28;20047;-33
2022/01/27 05:19:50;;;;;;;28.75;9.80;;;;;;;7.19;100.00;102122.06;5072609;28;20516;-31
2022/01/27 05:22:18;;;;;;;30.00;8.95;;;;;;;7.23;100.00;102122.41;5072098;28;20075;-30
2022/01/27 05:24:46;;;;;;;26.48;8.82;;;;;;;7.24;100.00;102129.66;5072788;28;20482;-31
2022/01/27 05:27:13;;;;;;;29.55;9.48;;;;;;;7.22;100.00;102121.56;5072584;28;20051;-35
2022/01/27 05:29:41;;;;;;;31.88;9.05;;;;;;;7.22;100.00;102116.03;5070841;28;20101;-35
2022/01/27 05:32:09;;;;;;;29.60;9.15;;;;;;;7.24;100.00;102115.78;5072838;28;20055;-32
2022/01/27 05:34:37;;;;;;;30.17;8.50;;;;;;;7.23;100.00;102105.75;5072347;28;20513;-31
2022/01/27 05:37:06;;;;;;;38.30;9.38;;;;;;;7.24;100.00;102113.00;5071792;28;20044;-30
2022/01/27 05:39:38;;;;;;;31.77;8.93;;;;;;;7.24;100.00;102122.19;5072593;28;20052;-31
2022/01/27 05:42:06;;;;;;;30.05;9.18;;;;;;;7.23;100.00;102117.72;5071569;28;20056;-31
2022/01/27 05:44:36;;;;;;;36.13;9.38;;;;;;;7.25;100.00;102123.03;5072239;28;20409;-32
2022/01/27 05:47:04;;;;;;;31.40;8.23;;;;;;;7.22;100.00;102124.34;5072188;28;20044;-32
2022/01/27 05:49:32;;;;;;;30.02;8.68;;;;;;;7.24;100.00;102124.09;5071674;28;20044;-31
2022/01/27 05:52:00;;;;;;;29.05;8.27;;;;;;;7.25;100.00;102121.09;5072231;28;20048;-32
2022/01/27 05:54:29;;;;;;;28.80;9.10;;;;;;;7.27;100.00;102123.63;5072261;28;20047;-31
2022/01/27 05:56:57;;;;;;;33.75;9.45;;;;;;;7.27;100.00;102112.50;5071134;28;20059;-31
2022/01/27 05:59:24;;;;;;;34.35;8.52;;;;;;;7.26;100.00;102122.78;5072102;28;20052;-30
2022/01/27 06:01:52;;;;;;;27.70;8.55;;;;;;;7.25;100.00;102111.91;5071607;28;20053;-33
2022/01/27 06:04:20;;;;;;;25.73;7.93;;;;;;;7.28;100.00;102111.44;5071212;28;20044;-31
2022/01/27 06:06:49;;;;;;;34.20;8.65;;;;;;;7.30;100.00;102100.06;5071789;28;20048;-31
2022/01/27 06:09:17;;;;;;;29.33;8.68;;;;;;;7.31;100.00;102104.53;5031828;28;20063;-31
2022/01/27 06:11:46;;;;;;;31.63;8.63;;;;;;;7.33;100.00;102096.81;5031324;28;20049;-33
2022/01/27 06:14:16;;;;;;;33.90;8.45;;;;;;;7.33;100.00;102102.38;5030704;28;20438;-32
2022/01/27 06:16:45;;;;;;;24.55;7.95;;;;;;;7.33;100.00;102086.53;5032130;28;20046;-35
2022/01/27 06:19:13;;;;;;;28.17;8.20;;;;;;;7.36;100.00;102091.63;5030809;28;20528;-33
2022/01/27 06:21:43;;;;;;;26.83;7.60;;;;;;;7.39;100.00;102098.59;5031912;28;20307;-31
2022/01/27 06:24:11;;;;;;;24.80;8.00;;;;;;;7.38;100.00;102106.09;5031517;28;20056;-33
2022/01/27 06:26:39;;;;;;;27.20;7.30;;;;;;;7.42;100.00;102104.47;5030903;28;20049;-32
2022/01/27 06:29:08;;;;;;;25.58;7.65;;;;;;;7.43;100.00;102099.78;5031069;28;20081;-31
2022/01/27 06:31:36;;;;;;;28.60;7.63;;;;;;;7.44;100.00;102091.19;5030398;28;20557;-32
2022/01/27 06:34:04;;;;;;;23.35;7.13;;;;;;;7.46;100.00;102102.91;5031570;28;20057;-34
2022/01/27 06:36:32;;;;;;;24.77;6.95;;;;;;;7.46;100.00;102096.50;5031390;28;20453;-33
2022/01/27 06:38:59;;;;;;;22.88;7.03;;;;;;;7.47;100.00;102106.53;5031048;28;20050;-31
2022/01/27 06:41:27;;;;;;;21.33;7.15;;;;;;;7.48;100.00;102097.09;5031482;28;20167;-31
2022/01/27 06:43:57;;;;;;;29.08;7.50;;;;;;;7.48;100.00;102097.09;5031379;28;20052;-32
2022/01/27 06:46:26;;;;;;;27.27;6.40;;;;;;;7.48;100.00;102097.94;5030277;28;20498;-32
2022/01/27 06:48:54;;;;;;;26.90;7.95;;;;;;;7.46;100.00;102088.16;5031204;28;20136;-30
2022/01/27 06:51:23;;;;;;;26.65;7.78;;;;;;;7.48;100.00;102091.53;5031365;28;20060;-31
2022/01/27 06:53:51;;;;;;;26.60;6.30;;;;;;;7.47;100.00;102093.47;5030606;28;20085;-31
2022/01/27 06:56:18;;;;;;;30.75;6.97;;;;;;;7.50;100.00;102092.16;5031251;28;20045;-31
2022/01/27 06:58:46;;;;;;;25.17;6.75;;;;;;;7.51;100.00;102097.44;5030892;28;20525;-30
2022/01/27 07:01:14;;;;;;;24.05;6.78;;;;;;;7.52;100.00;102098.28;5029838;28;20042;-30
2022/01/27 07:03:43;;;;;;;27.73;7.05;;;;;;;7.53;100.00;102098.06;5029271;28;20419;-32
2022/01/27 07:06:12;;;;;;;23.63;6.72;;;;;;;7.53;100.00;102109.16;5030034;28;20046;-31
2022/01/27 07:08:40;;;;;;;21.05;5.75;;;;;;;7.53;100.00;102105.53;5058696;28;20062;-35
2022/01/27 07:11:07;;;;;;;24.63;6.68;;;;;;;7.54;100.00;102115.56;5068487;28;20489;-34
2022/01/27 07:13:40;;;;;;;21.67;6.82;;;;;;;7.54;100.00;102116.41;5069168;28;20048;-31
2022/01/27 07:16:08;;;;;;;26.95;6.43;;;;;;;7.55;100.00;102114.47;5069045;28;20421;-30
2022/01/27 07:18:36;;;;;;;26.75;5.90;;;;;;;7.57;100.00;102109.50;5069655;28;20520;-33
2022/01/27 07:21:05;;;;;;;25.88;5.95;;;;;;;7.58;100.00;102109.25;5068543;28;20126;-33
2022/01/27 07:23:34;;;;;;;21.05;5.65;;;;;;;7.59;100.00;102110.09;5067771;28;20057;-31
2022/01/27 07:26:01;;;;;;;26.58;6.25;;;;;;;7.61;100.00;102113.44;5069593;28;20064;-34
2022/01/27 07:28:29;;;;;;;23.10;6.45;;;;;;;7.61;100.00;102125.41;5068070;28;20047;-32
2022/01/27 07:30:57;;;;;;;26.92;6.78;;;;;;;7.63;100.00;102124.31;5069543;28;20136;-29
2022/01/27 07:33:25;;;;;;;19.52;5.72;;;;;;;7.64;100.00;102115.75;5068737;28;20056;-30
2022/01/27 07:35:52;;;;;;;25.95;6.35;;;;;;;7.66;100.00;102121.03;5068370;28;20056;-30
2022/01/27 07:38:23;;;;;;;26.75;6.57;;;;;;;7.67;100.00;102123.56;5068964;28;20049;-31
2022/01/27 07:40:51;;;;;;;23.70;5.70;;;;;;;7.68;100.00;102128.03;5069072;28;20131;-30
2022/01/27 07:43:19;;;;;;;21.70;5.55;;;;;;;7.69;100.00;102126.94;5072587;28;20470;-31
2022/01/27 07:45:46;;;;;;;21.50;5.20;;;;;;;7.71;100.00;102135.88;5073692;28;20051;-34
2022/01/27 07:48:14;;;;;;;22.23;6.15;;;;;;;7.74;100.00;102124.28;5074346;28;20409;-32
2022/01/27 07:50:42;;;;;;;20.17;5.25;;;;;;;7.75;100.00;102125.97;5073921;28;20048;-33
2022/01/27 07:53:10;;;;;;;21.50;5.32;;;;;;;7.75;100.00;102137.06;5074404;28;20067;-30
2022/01/27 07:55:39;;;;;;;23.83;5.63;;;;;;;7.78;100.00;102135.75;5074391;28;20048;-31
2022/01/27 07:58:07;;;;;;;24.10;5.78;;;;;;;7.79;100.00;102131.88;5074051;28;20102;-30
2022/01/27 08:00:36;;;;;;;21.48;5.38;;;;;;;7.80;100.00;102128.81;5074410;28;20055;-31
2022/01/27 08:03:04;;;;;;;24.42;4.95;;;;;;;7.83;100.00;102133.88;5073364;28;20067;-32
2022/01/27 08:05:32;;;;;;;24.90;5.25;;;;;;;7.87;100.00;102126.72;5074324;28;20098;-31
2022/01/27 08:08:00;;;;;;;22.20;5.53;;;;;;;7.88;100.00;102131.19;5072855;28;20056;-34
2022/01/27 08:10:28;;;;;;;24.42;5.03;;;;;;;7.89;100.00;102130.09;5073540;28;20132;-32
2022/01/27 08:12:57;;;;;;;24.23;5.13;;;;;;;7.90;100.00;102120.69;5074045;28;20049;-30
2022/01/27 08:15:25;;;;;;;27.63;5.50;;;;;;;7.90;100.00;102119.84;5074317;28;20055;-33
2022/01/27 08:17:53;;;;;;;21.50;5.00;;;;;;;7.91;100.00;102125.16;5073207;28;20044;-31
2022/01/27 08:20:20;;;;;;;19.83;4.90;;;;;;;7.91;100.00;102125.16;5073919;28;20055;-34
2022/01/27 08:22:51;;;;;;;27.90;5.65;;;;;;;7.91;100.00;102119.59;5073597;28;20044;-32
2022/01/27 08:25:19;;;;;;;23.70;5.25;;;;;;;7.91;100.00;102129.84;5073334;28;20135;-31
2022/01/27 08:27:49;;;;;;;26.52;5.47;;;;;;;7.91;100.00;102130.72;5073781;28;20048;-30
2022/01/27 08:30:20;;;;;;;26.60;4.80;;;;;;;7.92;100.00;102124.06;5073835;28;20453;-34
2022/01/27 08:32:55;;;;;;;28.50;5.15;;;;;;;7.93;100.00;102125.75;5073414;28;20101;-33
2022/01/27 08:35:23;;;;;;;27.55;5.13;;;;;;;7.92;100.00;102129.63;5073934;28;20139;-29
2022/01/27 08:37:51;;;;;;;25.92;5.28;;;;;;;7.95;100.00;102125.50;5064612;28;20509;-34
2022/01/27 08:40:20;;;;;;;23.58;5.13;;;;;;;7.93;100.00;102122.97;5073214;28;20501;-31
2022/01/27 08:43:05;;;;;;;25.58;5.28;;;;;;;7.93;100.00;102122.13;5064897;28;20056;-31
2022/01/27 08:45:34;;;;;;;30.63;5.90;;;;;;;7.95;100.00;102134.69;5072564;28;20056;-34
2022/01/27 08:48:02;;;;;;;19.45;4.30;;;;;;;7.97;100.00;102125.25;5073654;28;20048;-38
2022/01/27 08:50:30;;;;;;;22.85;4.30;;;;;;;7.98;100.00;102122.22;5073569;28;20044;-37
2022/01/27 08:52:58;;;;;;;20.13;5.22;;;;;;;8.00;100.00;102138.63;5071760;28;20102;-32
2022/01/27 08:55:26;;;;;;;22.42;5.07;;;;;;;8.02;100.00;102136.44;5073132;28;20449;-33
2022/01/27 08:57:54;;;;;;;21.05;4.30;;;;;;;8.04;100.00;102137.03;5073247;28;20052;-31
2022/01/27 09:00:21;;;;;;;23.23;4.68;;;;;;;8.03;100.00;102132.56;5072287;28;20044;-35
2022/01/27 09:02:53;;;;;;;22.00;4.10;;;;;;;8.07;100.00;102119.84;5073367;28;20041;-30
2022/01/27 09:05:21;;;;;;;22.35;4.75;;;;;;;8.09;100.00;102120.44;5073033;28;20485;-32
2022/01/27 09:07:50;;;;;;;19.13;4.45;;;;;;;8.12;100.00;102125.50;5072127;28;20131;-32
2022/01/27 09:10:18;;;;;;;24.15;4.85;;;;;;;8.13;100.00;102133.59;5073356;28;20050;-32
2022/01/27 09:12:46;;;;;;;27.38;4.60;;;;;;;8.15;100.00;102131.41;5072912;28;20040;-31
2022/01/27 09:15:14;;;;;;;25.15;4.53;;;;;;;8.18;100.00;102133.69;5071978;28;20058;-36
2022/01/27 09:17:42;;;;;;;23.80;5.45;;;;;;;8.21;100.00;102140.66;5073068;28;20040;-33
2022/01/27 09:20:12;;;;;;;19.40;4.22;;;;;;;8.25;100.00;102136.28;5071913;28;20124;-32
2022/01/27 09:22:40;;;;;;;21.55;4.68;;;;;;;8.28;100.00;102133.00;5069994;28;20412;-34
2022/01/27 09:25:15;;;;;;;24.40;4.50;;;;;;;8.35;100.00;102139.28;5072446;28;20050;-30
2022/01/27 09:27:43;;;;;;;22.80;4.72;;;;;;;8.45;100.00;102142.22;5071839;28;20131;-31
2022/01/27 09:30:14;;;;;;;26.67;5.03;;;;;;;8.57;100.00;102154.09;5072614;28;20098;-32
2022/01/27 09:32:42;;;;;;;25.48;5.03;;;;;;;8.66;100.00;102148.09;5072566;28;20067;-33
2022/01/27 09:35:11;;;;;;;19.13;3.95;;;;;;;8.71;100.00;102140.66;5071670;28;20053;-32
2022/01/27 09:37:40;;;;;;;20.95;3.85;;;;;;;8.75;100.00;102132.66;5072382;28;20076;-32
2022/01/27 09:40:09;;;;;;;21.63;4.40;;;;;;;8.76;100.00;102151.03;5072335;28;20106;-33
2022/01/27 09:42:38;;;;;;;22.40;4.90;;;;;;;8.77;100.00;102156.34;5071686;28;20052;-32
2022/01/27 09:45:09;;;;;;;17.50;4.05;;;;;;;8.78;100.00;102154.41;5063136;28;20048;-34
2022/01/27 09:47:41;;;;;;;24.13;4.40;;;;;;;8.82;100.00;102158.34;5072230;28;20052;-34
2022/01/27 09:50:25;;;;;;;18.95;3.95;;;;;;;8.88;100.00;102146.19;5071185;28;20037;-34
2022/01/27 09:52:53;;;;;;;18.65;3.83;;;;;;;8.93;100.00;102154.63;5072588;28;20409;-34
2022/01/27 09:55:21;;;;;;;23.60;4.45;;;;;;;8.99;100.00;102156.41;5071346;28;20045;-30
2022/01/27 09:57:52;;;;;;;19.25;4.28;;;;;;;9.09;100.00;102158.47;5071872;28;20049;-33
2022/01/27 10:00:21;;;;;;;24.85;4.78;;;;;;;9.22;100.00;102161.69;5072079;28;20098;-31
2022/01/27 10:03:03;;;;;;;19.63;3.65;;;;;;;9.33;100.00;102163.53;5070794;28;20054;-32
2022/01/27 10:05:33;;;;;;;18.27;4.13;;;;;;;9.41;100.00;102161.38;5072154;28;20090;-32
2022/01/27 10:08:02;;;;;;;17.60;4.32;;;;;;;9.43;100.00;102167.53;5070547;28;20131;-31
2022/01/27 10:10:36;;;;;;;17.63;4.40;;;;;;;9.49;100.00;102170.13;5071022;28;20040;-34
2022/01/27 10:13:07;;;;;;;24.20;4.32;;;;;;;9.52;100.00;102169.63;5071784;28;20055;-33
2022/01/27 10:15:42;;;;;;;15.38;3.47;;;;;;;9.60;100.00;102171.94;5071917;28;20051;-33
2022/01/27 10:18:12;;;;;;;16.45;3.78;;;;;;;9.62;100.00;102168.88;5071032;28;20056;-31
2022/01/27 10:20:44;;;;;;;20.10;4.05;;;;;;;9.60;100.00;102169.13;5071742;28;20044;-31
2022/01/27 10:23:14;;;;;;;;;;;;;;;9.56;100.00;102178.31;5072179;28;20041;-37
2022/01/27 10:25:48;;;;;;;21.35;3.88;;;;;;;9.53;100.00;102176.88;5070653;28;20361;-35
2022/01/27 10:28:30;;;;;;;18.52;3.63;;;;;;;9.53;100.00;102181.59;5060745;28;20072;-31
2022/01/27 10:31:04;;;;;;;20.50;4.03;;;;;;;9.44;100.00;102185.94;5070897;28;20489;-34
2022/01/27 10:33:46;;;;;;;17.92;3.63;;;;;;;9.40;100.00;102185.59;5061101;28;20485;-30
2022/01/27 10:36:17;;;;;;;21.70;3.88;;;;;;;9.33;100.00;102188.59;5070146;28;20222;-33
2022/01/27 10:38:44;;;;;;;16.85;3.60;;;;;;;9.30;100.00;102186.34;5070785;28;20475;-32
2022/01/27 10:41:16;;;;;;;19.20;4.15;;;;;;;9.31;100.00;102185.22;5071407;28;20060;-30
2022/01/27 10:43:45;;;;;;;18.10;4.45;;;;;;;9.30;100.00;102182.72;5071123;28;20044;-31
2022/01/27 10:46:21;;;;;;;19.10;4.25;;;;;;;9.30;100.00;102189.13;5069398;28;20102;-32
2022/01/27 10:48:54;;;;;;;16.67;3.80;;;;;;;9.31;100.00;102184.41;5071275;28;20393;-31
2022/01/27 10:51:28;;;;;;;19.20;3.95;;;;;;;9.31;100.00;102174.09;5071224;28;20051;-34
2022/01/27 10:54:04;;;;;;;14.60;3.20;;;;;;;9.35;100.00;102187.50;5070753;28;20056;-32
2022/01/27 10:56:34;;;;;;;18.70;3.92;;;;;;;9.38;100.00;102187.00;5071165;28;20505;-31
2022/01/27 10:59:05;;;;;;;20.60;3.88;;;;;;;9.42;100.00;102182.56;5070176;28;20048;-32
2022/01/27 11:01:37;;;;;;;19.65;3.70;;;;;;;9.44;100.00;102188.72;5070260;28;20473;-32
2022/01/27 11:04:07;;;;;;;16.75;3.67;;;;;;;9.41;100.00;102186.44;5071048;28;20054;-32
2022/01/27 11:06:37;;;;;;;15.05;3.58;;;;;;;9.42;100.00;102190.94;5070146;28;20056;-30
2022/01/27 11:09:08;;;;;;;14.93;3.40;;;;;;;9.43;100.00;102192.59;5070012;28;20053;-32
2022/01/27 11:11:39;;;;;;;22.95;4.13;;;;;;;9.43;100.00;102187.03;5070939;28;20326;-32
2022/01/27 11:14:07;;;;;;;18.33;3.78;;;;;;;9.39;100.00;102186.75;5069889;28;20361;-32
2022/01/27 11:16:40;;;;;;;21.77;4.20;;;;;;;9.35;100.00;102184.72;5070820;28;20048;-35
2022/01/27 11:19:20;;;;;;;17.23;3.70;;;;;;;9.32;100.00;102181.34;5070647;28;20151;-33
2022/01/27 11:21:56;;;;;;;19.73;4.00;;;;;;;9.30;100.00;102186.34;5070085;28;20053;-30
2022/01/27 11:24:32;;;;;;;16.98;2.80;;;;;;;9.32;100.00;102186.91;5070735;28;20048;-33
2022/01/27 11:27:05;;;;;;;21.80;4.05;;;;;;;9.31;100.00;102184.41;5070345;28;20106;-32
2022/01/27 11:29:46;;;;;;;17.67;3.20;;;;;;;9.35;100.00;102184.72;5070435;28;20497;-31
2022/01/27 11:32:22;;;;;;;23.20;3.30;;;;;;;9.38;100.00;102173.91;5070807;28;20055;-32
2022/01/27 11:34:52;;;;;;;21.98;3.97;;;;;;;9.38;100.00;102181.44;5069883;28;20056;-29
2022/01/27 11:37:32;;;;;;;23.73;3.63;;;;;;;9.43;100.00;102187.03;5070810;28;20401;-32
2022/01/27 11:40:05;;;;;;;19.60;4.22;;;;;;;9.52;100.00;102180.75;5070234;28;20135;-33
2022/01/27 11:43:04;;;;;;;20.63;3.38;;;;;;;9.72;100.00;102185.75;5060422;28;20047;-31
2022/01/27 11:45:36;;;;;;;21.42;3.90;;;;;;;9.88;100.00;102187.59;5068138;28;20128;-30
2022/01/27 11:48:10;;;;;;;23.07;3.73;;;;;;;10.10;100.00;102186.69;5070026;28;20131;-34